Time;durP1;ratioP1;P1;durP2;ratioP2;P2;SDS_P1;SDS_P2;PMS_P1;PMS_P2;Temp;Humidity;BMP_temperature;BMP_pressure;BME280_temperature;BME280_humidity;BME280_pressure;Samples;Min_cycle;Max_cycle;Signal;HPM_P1;HPM_P2
2023/04/19 00:00:58;;;;;;;13.85;12.18;;;12.60;97.40;;;;;;4230038;28;20092;-59
2023/04/19 00:03:01;;;;;;;17.25;13.15;;;12.60;97.30;;;;;;4230334;28;20043;-53
2023/04/19 00:05:05;;;;;;;17.87;13.43;;;12.50;97.50;;;;;;4230498;28;20052;-56
2023/04/19 00:07:07;;;;;;;13.68;12.27;;;12.50;97.50;;;;;;4229486;28;20988;-51
2023/04/19 00:09:09;;;;;;;15.80;11.82;;;12.50;97.60;;;;;;4230302;28;20043;-52
2023/04/19 00:11:12;;;;;;;15.95;12.70;;;12.50;97.50;;;;;;4230667;28;20051;-52
2023/04/19 00:13:14;;;;;;;15.52;12.98;;;12.50;97.60;;;;;;4230335;28;20063;-54
2023/04/19 00:15:16;;;;;;;19.55;12.70;;;12.50;97.60;;;;;;4229917;28;20071;-52
2023/04/19 00:17:20;;;;;;;14.73;11.95;;;12.50;97.60;;;;;;4229258;28;20405;-58
2023/04/19 00:19:23;;;;;;;14.38;12.15;;;12.50;97.70;;;;;;4230402;28;20050;-53
2023/04/19 00:21:25;;;;;;;21.45;12.52;;;12.40;97.70;;;;;;4230222;28;20040;-56
2023/04/19 00:23:27;;;;;;;17.23;12.45;;;12.50;97.70;;;;;;4231234;28;20134;-54
2023/04/19 00:25:30;;;;;;;14.75;12.05;;;12.40;97.70;;;;;;4230737;28;20050;-55
2023/04/19 00:27:33;;;;;;;16.20;12.02;;;12.40;98.00;;;;;;4232520;28;20078;-56
2023/04/19 00:29:38;;;;;;;16.15;12.20;;;12.40;97.70;;;;;;4233166;28;20051;-54
2023/04/19 00:31:40;;;;;;;12.93;10.98;;;12.40;97.60;;;;;;4233392;28;20124;-55
2023/04/19 00:33:42;;;;;;;13.70;11.40;;;12.40;97.70;;;;;;4234336;28;20123;-58
2023/04/19 00:35:46;;;;;;;13.40;11.70;;;12.40;97.70;;;;;;4233843;28;20048;-56
2023/04/19 00:37:48;;;;;;;14.30;11.90;;;12.40;97.70;;;;;;4233030;28;20054;-54
2023/04/19 00:39:50;;;;;;;14.90;11.48;;;12.30;97.80;;;;;;4232840;28;20051;-55
2023/04/19 00:41:53;;;;;;;13.15;11.75;;;12.30;97.80;;;;;;4233202;28;20040;-55
2023/04/19 00:44:00;;;;;;;13.30;11.43;;;12.30;97.90;;;;;;4232935;28;20051;-55
2023/04/19 00:46:02;;;;;;;12.75;10.80;;;12.20;98.00;;;;;;4232277;28;20039;-53
2023/04/19 00:48:05;;;;;;;17.92;11.50;;;12.20;98.00;;;;;;4232925;28;20073;-52
2023/04/19 00:50:08;;;;;;;15.55;12.32;;;12.20;98.10;;;;;;4233167;28;20127;-55
2023/04/19 00:52:13;;;;;;;13.60;11.32;;;12.20;98.10;;;;;;4233054;28;20052;-56
2023/04/19 00:54:15;;;;;;;13.03;10.97;;;12.10;98.20;;;;;;4233105;28;20101;-58
2023/04/19 00:56:20;;;;;;;14.23;11.40;;;12.10;98.30;;;;;;4232187;28;20051;-55
2023/04/19 00:58:22;;;;;;;13.98;10.70;;;12.10;98.20;;;;;;4233497;28;20047;-52
2023/04/19 01:00:25;;;;;;;14.27;11.32;;;12.10;98.30;;;;;;4215423;28;20048;-53
2023/04/19 01:02:30;;;;;;;14.15;11.75;;;12.10;98.30;;;;;;4233043;28;20117;-56
2023/04/19 01:04:32;;;;;;;13.57;11.02;;;12.00;98.40;;;;;;4232709;28;20046;-56
2023/04/19 01:06:35;;;;;;;13.65;11.02;;;12.10;98.30;;;;;;4231612;28;20472;-56
2023/04/19 01:08:39;;;;;;;15.10;11.18;;;12.00;98.30;;;;;;4214933;28;20508;-55
2023/04/19 01:10:41;;;;;;;13.68;10.68;;;12.00;98.30;;;;;;4232627;28;20044;-56
2023/04/19 01:12:43;;;;;;;14.15;11.32;;;12.00;98.30;;;;;;4232421;28;20047;-56
2023/04/19 01:14:45;;;;;;;14.52;10.63;;;12.00;98.40;;;;;;4232762;28;20055;-56
2023/04/19 01:16:49;;;;;;;13.40;10.00;;;12.00;98.40;;;;;;4213340;28;20114;-56
2023/04/19 01:18:51;;;;;;;13.45;10.00;;;12.00;98.50;;;;;;4232584;28;20051;-55
2023/04/19 01:20:54;;;;;;;11.73;10.35;;;11.90;98.40;;;;;;4232555;28;20374;-54
2023/04/19 01:22:57;;;;;;;12.55;11.00;;;12.00;98.50;;;;;;4232433;28;20048;-55
2023/04/19 01:25:01;;;;;;;14.18;10.63;;;11.90;98.50;;;;;;4214836;28;20089;-55
2023/04/19 01:27:03;;;;;;;17.13;10.50;;;11.90;98.50;;;;;;4230940;28;20039;-55
2023/04/19 01:29:06;;;;;;;12.98;10.52;;;11.90;98.60;;;;;;4232487;28;20051;-54
2023/04/19 01:31:08;;;;;;;13.80;11.23;;;11.80;98.60;;;;;;4231930;28;20116;-54
2023/04/19 01:33:10;;;;;;;15.98;10.70;;;11.80;98.70;;;;;;4232575;28;20054;-56
2023/04/19 01:35:12;;;;;;;14.27;10.73;;;11.80;98.70;;;;;;4214217;28;20439;-55
2023/04/19 01:37:14;;;;;;;13.45;9.93;;;11.80;98.70;;;;;;4231342;28;20404;-54
2023/04/19 01:39:17;;;;;;;11.73;10.18;;;11.80;98.70;;;;;;4232452;28;20048;-52
2023/04/19 01:41:21;;;;;;;12.85;10.63;;;11.80;98.80;;;;;;4214187;28;20048;-54
2023/04/19 01:43:23;;;;;;;12.23;10.17;;;11.80;98.80;;;;;;4232052;28;20122;-53
2023/04/19 01:45:25;;;;;;;12.45;10.27;;;11.80;98.80;;;;;;4234118;28;20479;-53
2023/04/19 01:47:28;;;;;;;14.57;10.48;;;11.70;98.80;;;;;;4232982;28;20047;-59
2023/04/19 01:49:30;;;;;;;14.25;11.00;;;11.80;98.80;;;;;;4233532;28;20385;-53
2023/04/19 01:51:32;;;;;;;13.43;9.90;;;11.80;98.90;;;;;;4232076;28;20043;-53
2023/04/19 01:53:35;;;;;;;12.25;10.07;;;11.60;99.00;;;;;;4232091;28;20040;-52
2023/04/19 01:55:38;;;;;;;11.85;9.82;;;11.70;99.10;;;;;;4232096;28;20131;-51
2023/04/19 01:57:40;;;;;;;11.07;9.93;;;11.70;98.90;;;;;;4230653;28;20048;-56
2023/04/19 01:59:42;;;;;;;11.88;10.27;;;11.70;99.00;;;;;;4232130;28;20047;-52
2023/04/19 02:01:45;;;;;;;13.93;10.00;;;11.70;99.00;;;;;;4232747;28;20071;-52
2023/04/19 02:03:47;;;;;;;12.77;10.15;;;11.70;99.10;;;;;;4232558;28;20126;-53
2023/04/19 02:05:49;;;;;;;11.13;9.82;;;11.70;99.30;;;;;;4231941;28;20062;-53
2023/04/19 02:07:51;;;;;;;13.63;10.25;;;11.60;99.00;;;;;;4230663;28;20044;-55
2023/04/19 02:09:53;;;;;;;12.02;10.00;;;11.60;99.10;;;;;;4231984;28;20050;-55
2023/04/19 02:11:57;;;;;;;13.80;10.32;;;11.60;99.30;;;;;;4213348;28;20413;-56
2023/04/19 02:13:59;;;;;;;13.82;10.27;;;11.60;99.20;;;;;;4231740;28;20450;-55
2023/04/19 02:16:01;;;;;;;13.27;10.00;;;11.60;99.10;;;;;;4231403;28;20036;-56
2023/04/19 02:18:05;;;;;;;11.18;10.07;;;11.60;99.20;;;;;;4212932;28;20051;-54
2023/04/19 02:20:09;;;;;;;11.68;10.07;;;11.60;99.20;;;;;;4213553;28;20056;-55
2023/04/19 02:22:11;;;;;;;12.18;10.15;;;11.50;99.20;;;;;;4232041;28;20100;-54
2023/04/19 02:24:13;;;;;;;15.70;10.02;;;11.50;99.30;;;;;;4233209;28;20051;-57
2023/04/19 02:26:16;;;;;;;11.10;9.13;;;11.50;99.40;;;;;;4230663;28;20044;-55
2023/04/19 02:28:20;;;;;;;12.82;9.45;;;11.50;99.40;;;;;;4231580;28;20047;-53
2023/04/19 02:30:22;;;;;;;12.70;10.13;;;11.50;99.50;;;;;;4231529;28;20456;-55
2023/04/19 02:32:24;;;;;;;10.80;9.65;;;11.40;99.50;;;;;;4231450;28;20052;-54
2023/04/19 02:34:27;;;;;;;10.90;9.77;;;11.50;99.50;;;;;;4231635;28;20075;-55
2023/04/19 02:36:29;;;;;;;14.23;10.10;;;11.50;99.30;;;;;;4230418;28;20040;-56
2023/04/19 02:38:31;;;;;;;11.23;9.93;;;11.40;99.40;;;;;;4231247;28;20059;-56
2023/04/19 02:40:33;;;;;;;13.68;10.80;;;11.40;99.40;;;;;;4197429;28;20048;-54
2023/04/19 02:42:36;;;;;;;15.63;10.13;;;11.30;99.40;;;;;;4198185;28;20594;-55
2023/04/19 02:44:39;;;;;;;13.90;10.38;;;11.40;99.50;;;;;;4198455;28;20400;-56
2023/04/19 02:46:47;;;;;;;13.60;9.13;;;11.30;99.40;;;;;;4196863;28;20044;-55
2023/04/19 02:48:49;;;;;;;13.27;9.85;;;11.30;99.50;;;;;;4196958;28;20144;-54
2023/04/19 02:50:51;;;;;;;13.60;10.30;;;11.30;99.50;;;;;;4197600;28;20493;-55
2023/04/19 02:52:53;;;;;;;14.10;9.60;;;11.30;99.60;;;;;;4197461;28;20052;-56
2023/04/19 02:54:55;;;;;;;12.38;10.05;;;11.20;99.60;;;;;;4212661;28;20059;-54
2023/04/19 02:56:58;;;;;;;14.05;9.75;;;11.30;99.70;;;;;;4196700;28;20105;-52
2023/04/19 02:59:00;;;;;;;14.75;10.10;;;11.30;99.60;;;;;;4197855;28;20477;-53
2023/04/19 03:01:04;;;;;;;14.20;9.73;;;11.30;99.70;;;;;;4197970;28;20508;-54
2023/04/19 03:03:08;;;;;;;13.88;10.23;;;11.30;99.50;;;;;;4197844;28;20151;-53
2023/04/19 03:05:10;;;;;;;15.77;9.88;;;11.30;99.50;;;;;;4196538;28;20515;-52
2023/04/19 03:07:13;;;;;;;11.85;8.75;;;11.30;99.50;;;;;;4196670;28;20086;-52
2023/04/19 03:09:15;;;;;;;12.68;9.73;;;11.30;99.50;;;;;;4197250;28;20045;-52
2023/04/19 03:11:17;;;;;;;14.77;9.80;;;11.30;99.80;;;;;;4197611;28;20471;-53
2023/04/19 03:13:19;;;;;;;12.52;9.73;;;11.30;99.80;;;;;;4197613;28;20049;-52
2023/04/19 03:15:21;;;;;;;12.40;9.75;;;11.30;99.50;;;;;;4197272;28;20119;-53
2023/04/19 03:17:25;;;;;;;12.13;10.00;;;11.30;99.50;;;;;;4196111;28;20054;-53
2023/04/19 03:19:27;;;;;;;11.07;8.38;;;11.20;99.50;;;;;;4197583;28;20060;-55
2023/04/19 03:21:30;;;;;;;15.25;9.85;;;11.20;99.70;;;;;;4197193;28;20177;-56
2023/04/19 03:23:32;;;;;;;11.93;9.65;;;11.10;99.70;;;;;;4196970;28;20041;-54
2023/04/19 03:25:37;;;;;;;13.73;10.05;;;11.20;99.70;;;;;;4196937;28;20048;-55
2023/04/19 03:27:39;;;;;;;11.30;9.68;;;11.10;99.60;;;;;;4196247;28;20124;-54
2023/04/19 03:29:41;;;;;;;14.27;9.82;;;11.10;99.70;;;;;;4197195;28;20056;-56
2023/04/19 03:31:49;;;;;;;12.35;10.18;;;11.10;99.80;;;;;;4195830;28;20055;-55
2023/04/19 03:33:53;;;;;;;15.40;11.00;;;11.10;99.60;;;;;;4197599;28;20101;-55
2023/04/19 03:35:55;;;;;;;11.45;9.88;;;11.10;99.70;;;;;;4197470;28;20127;-55
2023/04/19 03:37:57;;;;;;;12.52;9.68;;;11.00;99.90;;;;;;4196309;28;20064;-55
2023/04/19 03:39:59;;;;;;;11.55;10.05;;;11.10;99.90;;;;;;4221377;28;20047;-55
2023/04/19 03:42:01;;;;;;;12.25;10.00;;;11.10;99.90;;;;;;4230387;28;20385;-55
2023/04/19 03:44:04;;;;;;;12.10;9.95;;;11.10;99.90;;;;;;4230317;28;20430;-55
2023/04/19 03:46:07;;;;;;;10.82;9.63;;;11.10;99.80;;;;;;4230387;28;20501;-58
2023/04/19 03:48:09;;;;;;;12.70;10.23;;;11.00;99.90;;;;;;4211255;28;20098;-54
2023/04/19 03:50:13;;;;;;;11.95;10.40;;;10.90;99.90;;;;;;4230399;28;20071;-54
2023/04/19 03:52:15;;;;;;;12.70;10.50;;;11.00;99.90;;;;;;4229960;28;20075;-55
2023/04/19 03:54:16;;;;;;;11.65;9.77;;;11.00;99.90;;;;;;4230594;28;20050;-54
2023/04/19 03:56:19;;;;;;;13.77;10.93;;;10.90;99.90;;;;;;4230594;28;20048;-55
2023/04/19 03:58:21;;;;;;;14.27;10.30;;;11.00;99.90;;;;;;4229658;28;20047;-55
2023/04/19 04:00:23;;;;;;;13.68;10.32;;;10.90;99.90;;;;;;4230300;28;20050;-53
2023/04/19 04:02:25;;;;;;;13.07;10.48;;;10.90;99.90;;;;;;4215900;28;20082;-53
2023/04/19 04:04:28;;;;;;;12.82;10.32;;;10.80;99.90;;;;;;4233852;28;20058;-57
2023/04/19 04:06:31;;;;;;;12.63;9.77;;;10.80;99.90;;;;;;4232662;28;20051;-54
2023/04/19 04:08:33;;;;;;;11.43;9.90;;;10.80;99.90;;;;;;4233392;28;20039;-54
2023/04/19 04:10:35;;;;;;;12.15;10.20;;;10.80;99.90;;;;;;4233187;28;20051;-55
2023/04/19 04:12:37;;;;;;;13.48;10.35;;;10.80;99.90;;;;;;4233436;28;20060;-53
2023/04/19 04:14:39;;;;;;;18.30;11.25;;;10.80;99.90;;;;;;4234420;28;20381;-59
2023/04/19 04:16:41;;;;;;;12.95;10.70;;;10.70;99.90;;;;;;4233823;28;20093;-54
2023/04/19 04:18:44;;;;;;;12.00;10.13;;;10.80;99.90;;;;;;4233501;28;20059;-53
2023/04/19 04:20:47;;;;;;;14.13;11.05;;;10.70;99.90;;;;;;4233585;28;20066;-55
2023/04/19 04:22:51;;;;;;;13.10;9.98;;;10.70;99.90;;;;;;4233305;28;20048;-54
2023/04/19 04:24:53;;;;;;;14.68;10.93;;;10.70;99.90;;;;;;4215397;28;20140;-55
2023/04/19 04:26:56;;;;;;;13.68;10.63;;;10.70;99.90;;;;;;4232894;28;20051;-55
2023/04/19 04:29:02;;;;;;;13.73;11.20;;;10.70;99.90;;;;;;4233443;28;20044;-54
2023/04/19 04:31:04;;;;;;;;;;;10.70;99.90;;;;;;4234019;28;20809;-56
2023/04/19 04:33:07;;;;;;;11.55;10.20;;;10.60;99.90;;;;;;4233345;28;19951;-55
2023/04/19 04:35:10;;;;;;;14.50;10.82;;;10.60;99.90;;;;;;4233074;28;20048;-54
2023/04/19 04:37:12;;;;;;;14.18;10.52;;;10.50;99.90;;;;;;4232100;28;20061;-53
2023/04/19 04:39:17;;;;;;;14.48;10.80;;;10.50;99.90;;;;;;4233228;28;20579;-55
2023/04/19 04:41:19;;;;;;;14.93;11.63;;;10.50;99.90;;;;;;4215441;28;20481;-54
2023/04/19 04:43:27;;;;;;;14.02;11.38;;;10.50;99.90;;;;;;4233495;28;20048;-52
2023/04/19 04:45:30;;;;;;;14.85;11.50;;;10.60;99.90;;;;;;4233379;28;20044;-52
2023/04/19 04:47:33;;;;;;;15.07;10.90;;;10.60;99.90;;;;;;4232713;28;20067;-54
2023/04/19 04:49:36;;;;;;;13.95;10.45;;;10.50;99.90;;;;;;4233291;28;20047;-55
2023/04/19 04:51:38;;;;;;;17.25;11.63;;;10.50;99.90;;;;;;4233079;28;20047;-53
2023/04/19 04:53:40;;;;;;;19.60;11.07;;;10.50;99.90;;;;;;4233050;28;20047;-60
2023/04/19 04:55:44;;;;;;;16.13;11.38;;;10.50;99.90;;;;;;4233202;28;20047;-53
2023/04/19 04:57:46;;;;;;;16.70;12.00;;;10.50;99.90;;;;;;4232212;28;20039;-54
2023/04/19 04:59:48;;;;;;;15.45;12.38;;;10.50;99.90;;;;;;4233164;28;20047;-54
2023/04/19 05:01:50;;;;;;;15.90;10.90;;;10.50;99.90;;;;;;4233078;28;20051;-56
2023/04/19 05:03:52;;;;;;;18.67;12.02;;;10.50;99.90;;;;;;4233398;28;20068;-56
2023/04/19 05:05:55;;;;;;;14.48;11.57;;;10.50;99.90;;;;;;4234727;28;20123;-53
2023/04/19 05:07:59;;;;;;;;;;;10.50;99.90;;;;;;4234435;28;20070;-55
2023/04/19 05:10:02;;;;;;;13.45;10.95;;;10.50;99.90;;;;;;4234492;28;19930;-55
2023/04/19 05:12:05;;;;;;;14.65;11.13;;;10.50;99.90;;;;;;4232873;28;20043;-55
2023/04/19 05:14:08;;;;;;;15.02;11.88;;;10.50;99.90;;;;;;4232923;28;20052;-54
2023/04/19 05:16:10;;;;;;;14.88;12.15;;;10.50;99.90;;;;;;4233656;28;20070;-54
2023/04/19 05:18:12;;;;;;;16.15;11.27;;;10.50;99.90;;;;;;4231617;28;20051;-55
2023/04/19 05:20:15;;;;;;;17.77;11.85;;;10.50;99.90;;;;;;4214632;28;20048;-55
2023/04/19 05:22:17;;;;;;;15.75;11.95;;;10.50;99.90;;;;;;4232735;28;20040;-55
2023/04/19 05:24:19;;;;;;;19.55;11.65;;;10.60;99.90;;;;;;4214662;28;20044;-56
2023/04/19 05:26:22;;;;;;;14.40;11.57;;;10.60;99.90;;;;;;4232558;28;20054;-55
2023/04/19 05:28:25;;;;;;;19.23;12.82;;;10.60;99.90;;;;;;4231833;28;20067;-56
2023/04/19 05:30:28;;;;;;;15.25;12.27;;;10.70;99.90;;;;;;4232594;28;20044;-57
2023/04/19 05:32:30;;;;;;;22.77;13.00;;;10.60;99.90;;;;;;4232440;28;20089;-61
2023/04/19 05:34:32;;;;;;;15.73;12.15;;;10.60;99.90;;;;;;4232566;28;20352;-55
2023/04/19 05:36:34;;;;;;;18.80;12.23;;;10.70;99.90;;;;;;4232533;28;20405;-55
2023/04/19 05:38:36;;;;;;;15.10;11.77;;;10.70;99.90;;;;;;4213436;28;20047;-56
2023/04/19 05:40:39;;;;;;;15.27;12.68;;;10.70;99.90;;;;;;4232932;28;20066;-55
2023/04/19 05:42:41;;;;;;;19.40;12.32;;;10.70;99.90;;;;;;4232561;28;20134;-55
2023/04/19 05:44:44;;;;;;;17.88;12.25;;;10.70;99.90;;;;;;4232375;28;20055;-54
2023/04/19 05:46:47;;;;;;;16.13;12.05;;;10.80;99.90;;;;;;4232129;28;20442;-56
2023/04/19 05:48:49;;;;;;;18.10;12.95;;;10.80;99.90;;;;;;4231594;28;20120;-51
2023/04/19 05:50:56;;;;;;;16.70;13.02;;;10.70;99.90;;;;;;4232461;28;20110;-56
2023/04/19 05:52:58;;;;;;;18.08;13.07;;;10.80;99.90;;;;;;4232070;28;20053;-56
2023/04/19 05:55:00;;;;;;;17.30;12.38;;;10.90;99.90;;;;;;4232379;28;20052;-55
2023/04/19 05:57:03;;;;;;;19.38;12.48;;;10.80;99.90;;;;;;4231257;28;20081;-55
2023/04/19 05:59:05;;;;;;;21.23;12.50;;;10.80;99.90;;;;;;4231839;28;20078;-59
2023/04/19 06:01:09;;;;;;;16.15;12.15;;;10.80;99.90;;;;;;4231760;28;20048;-56
2023/04/19 06:03:11;;;;;;;19.20;13.15;;;10.80;99.90;;;;;;4231716;28;20472;-56
2023/04/19 06:05:14;;;;;;;18.67;12.25;;;10.80;99.90;;;;;;4232438;28;20541;-59
2023/04/19 06:07:17;;;;;;;20.77;12.93;;;10.80;99.90;;;;;;4232461;28;20051;-59
2023/04/19 06:09:34;;;;;;;16.00;12.95;;;10.80;99.90;;;;;;4233879;28;20044;-54
2023/04/19 06:11:36;;;;;;;16.02;13.43;;;10.70;99.90;;;;;;4234089;28;20122;-56
2023/04/19 06:13:50;;;;;;;17.60;13.57;;;10.80;99.90;;;;;;4232839;28;20047;-56
2023/04/19 06:15:52;;;;;;;25.00;13.40;;;10.80;99.90;;;;;;4232580;28;20048;-54
2023/04/19 06:17:56;;;;;;;17.45;12.98;;;10.80;99.90;;;;;;4230657;28;20096;-55
2023/04/19 06:20:00;;;;;;;19.52;12.95;;;10.80;99.90;;;;;;4231878;28;20050;-56
2023/04/19 06:22:03;;;;;;;17.95;12.85;;;10.80;99.90;;;;;;4231933;28;20044;-55
2023/04/19 06:24:06;;;;;;;18.73;13.73;;;10.90;99.90;;;;;;4231214;28;20047;-55
2023/04/19 06:26:08;;;;;;;19.83;13.68;;;10.90;99.90;;;;;;4231713;28;20043;-55
2023/04/19 06:28:10;;;;;;;17.38;13.15;;;10.90;99.90;;;;;;4230864;28;20397;-56
2023/04/19 06:30:12;;;;;;;18.80;13.07;;;10.90;99.90;;;;;;4231743;28;20075;-55
2023/04/19 06:32:15;;;;;;;20.95;14.27;;;10.90;99.90;;;;;;4231282;28;20043;-55
2023/04/19 06:34:18;;;;;;;17.65;13.25;;;11.00;99.90;;;;;;4231385;28;20050;-56
2023/04/19 06:36:21;;;;;;;20.33;13.93;;;11.00;99.90;;;;;;4231649;28;20050;-56
2023/04/19 06:38:23;;;;;;;20.63;13.73;;;11.00;99.90;;;;;;4230636;28;20052;-56
2023/04/19 06:40:27;;;;;;;17.05;13.45;;;11.00;99.90;;;;;;4231282;28;20074;-55
2023/04/19 06:42:29;;;;;;;;;;;11.00;99.90;;;;;;4232072;28;20057;-57
2023/04/19 06:44:31;;;;;;;20.60;14.30;;;11.10;99.90;;;;;;4231373;28;20325;-55
2023/04/19 06:46:34;;;;;;;19.00;13.63;;;11.00;99.90;;;;;;4230939;28;20050;-55
2023/04/19 06:48:36;;;;;;;19.80;13.70;;;11.10;99.90;;;;;;4230146;28;20050;-54
2023/04/19 06:50:39;;;;;;;19.73;13.38;;;11.10;99.90;;;;;;4231439;28;20054;-57
2023/04/19 06:52:42;;;;;;;20.42;14.07;;;11.20;99.90;;;;;;4231383;28;20043;-55
2023/04/19 06:54:46;;;;;;;21.92;13.60;;;11.30;99.90;;;;;;4232422;28;20135;-57
2023/04/19 06:56:49;;;;;;;18.92;14.15;;;11.40;99.90;;;;;;4231642;28;20066;-57
2023/04/19 06:58:51;;;;;;;22.85;15.10;;;11.40;99.90;;;;;;4230806;28;20052;-53
2023/04/19 07:00:54;;;;;;;21.83;15.07;;;11.40;99.80;;;;;;4230940;28;20484;-53
2023/04/19 07:02:58;;;;;;;21.15;13.90;;;11.40;99.80;;;;;;4213214;28;20043;-56
2023/04/19 07:05:01;;;;;;;30.15;14.07;;;11.50;99.70;;;;;;4231090;28;20044;-56
2023/04/19 07:07:04;;;;;;;19.27;13.60;;;11.50;99.60;;;;;;4230349;28;20160;-54
2023/04/19 07:09:07;;;;;;;23.52;13.73;;;11.60;99.50;;;;;;4230845;28;20043;-52
2023/04/19 07:11:09;;;;;;;18.60;13.07;;;11.70;99.50;;;;;;4230982;28;20248;-52
2023/04/19 07:13:11;;;;;;;19.50;13.43;;;11.90;99.40;;;;;;4213014;28;20048;-52
2023/04/19 07:15:14;;;;;;;16.33;12.07;;;12.00;99.10;;;;;;4230606;28;20047;-54
2023/04/19 07:17:17;;;;;;;18.30;13.38;;;12.10;99.10;;;;;;4230030;28;20062;-54
2023/04/19 07:19:19;;;;;;;20.95;14.48;;;12.10;98.70;;;;;;4230537;28;20047;-54
2023/04/19 07:21:23;;;;;;;17.88;13.27;;;12.20;98.60;;;;;;4230724;28;20044;-54
2023/04/19 07:23:27;;;;;;;11.45;9.73;;;12.10;98.70;;;;;;4230894;28;20058;-55
2023/04/19 07:25:29;;;;;;;22.55;14.20;;;12.10;99.00;;;;;;4230943;28;20072;-55
2023/04/19 07:27:31;;;;;;;17.27;11.10;;;12.10;98.80;;;;;;4230021;28;20108;-51
2023/04/19 07:29:34;;;;;;;21.10;13.88;;;12.40;99.10;;;;;;4230479;28;20454;-53
2023/04/19 07:31:36;;;;;;;21.48;12.90;;;12.80;98.20;;;;;;4230728;28;20054;-51
2023/04/19 07:33:39;;;;;;;20.65;13.25;;;13.20;97.70;;;;;;4230541;28;20052;-52
2023/04/19 07:35:41;;;;;;;21.15;13.60;;;13.50;97.00;;;;;;4231046;28;20047;-52
2023/04/19 07:37:43;;;;;;;19.00;11.93;;;13.70;96.50;;;;;;4229884;28;20144;-56
2023/04/19 07:39:47;;;;;;;16.75;12.20;;;14.20;96.40;;;;;;4230497;28;20135;-54
2023/04/19 07:41:49;;;;;;;16.70;11.20;;;14.60;95.50;;;;;;4230805;28;20092;-55
2023/04/19 07:43:51;;;;;;;15.68;12.27;;;14.80;95.40;;;;;;4230745;28;20497;-55
2023/04/19 07:45:53;;;;;;;14.98;11.90;;;14.90;94.70;;;;;;4230211;28;20044;-55
2023/04/19 07:47:55;;;;;;;20.25;13.55;;;15.00;94.40;;;;;;4229745;28;20131;-54
2023/04/19 07:50:04;;;;;;;17.02;12.73;;;15.20;94.70;;;;;;4230572;28;20050;-55
2023/04/19 07:52:09;;;;;;;15.80;12.02;;;15.30;94.20;;;;;;4212732;28;20051;-54
2023/04/19 07:54:11;;;;;;;16.92;12.25;;;15.30;94.10;;;;;;4212690;28;20052;-55
2023/04/19 07:56:15;;;;;;;18.08;11.68;;;15.50;94.10;;;;;;4230708;28;20476;-57
2023/04/19 07:58:17;;;;;;;16.67;12.63;;;15.80;94.00;;;;;;4225573;28;20040;-56
2023/04/19 08:00:23;;;;;;;18.23;12.57;;;15.80;93.20;;;;;;4214096;28;20052;-54
2023/04/19 08:02:26;;;;;;;25.77;12.60;;;15.60;93.40;;;;;;4226083;28;20047;-54
2023/04/19 08:04:29;;;;;;;12.98;9.80;;;15.60;93.90;;;;;;4220034;28;20063;-56
2023/04/19 08:06:32;;;;;;;13.88;11.63;;;15.60;94.20;;;;;;4222723;28;20040;-55
2023/04/19 08:08:34;;;;;;;14.65;11.60;;;15.70;93.60;;;;;;4221823;28;20040;-55
2023/04/19 08:10:36;;;;;;;28.98;12.48;;;15.70;93.50;;;;;;4223622;28;20481;-56
2023/04/19 08:12:40;;;;;;;17.10;11.88;;;15.50;93.50;;;;;;4222731;28;20047;-55
2023/04/19 08:15:02;;;;;;;14.98;10.88;;;15.40;94.00;;;;;;4221399;28;20047;-55
2023/04/19 08:17:25;;;;;;;18.77;13.10;;;15.50;93.90;;;;;;4212644;28;20062;-55
2023/04/19 08:19:38;;;;;;;18.08;10.73;;;15.70;93.60;;;;;;4218355;28;20044;-55
2023/04/19 08:21:40;;;;;;;13.23;9.85;;;15.90;94.00;;;;;;4220991;28;20485;-55
2023/04/19 08:23:42;;;;;;;13.73;9.02;;;16.20;93.60;;;;;;4213125;28;20447;-57
2023/04/19 08:25:49;;;;;;;17.42;11.93;;;16.60;93.10;;;;;;4213129;28;20051;-55
2023/04/19 08:27:53;;;;;;;14.35;11.35;;;16.90;92.40;;;;;;4211906;28;20044;-56
2023/04/19 08:29:55;;;;;;;21.42;11.60;;;16.80;92.40;;;;;;4213356;28;20052;-55
2023/04/19 08:31:57;;;;;;;18.23;13.05;;;16.70;92.70;;;;;;4214700;28;20094;-54
2023/04/19 08:34:01;;;;;;;20.52;12.75;;;16.30;92.40;;;;;;4195208;28;20102;-55
2023/04/19 08:36:04;;;;;;;17.00;11.40;;;16.10;92.70;;;;;;4214045;28;20470;-57
2023/04/19 08:38:06;;;;;;;17.70;11.88;;;15.90;93.00;;;;;;4221397;28;20400;-59
2023/04/19 08:40:10;;;;;;;33.28;13.30;;;15.90;93.10;;;;;;4230945;28;20051;-54
2023/04/19 08:42:12;;;;;;;30.42;12.88;;;16.00;93.10;;;;;;4230717;28;20290;-56
2023/04/19 08:44:21;;;;;;;43.40;14.50;;;16.10;93.30;;;;;;4220842;28;20043;-55
2023/04/19 08:46:37;;;;;;;25.88;12.88;;;15.90;93.20;;;;;;4220272;28;20529;-55
2023/04/19 08:48:40;;;;;;;25.58;12.90;;;15.90;93.20;;;;;;4228291;28;20100;-55
2023/04/19 08:50:44;;;;;;;24.88;13.15;;;16.00;93.20;;;;;;4213122;28;20118;-56
2023/04/19 08:53:06;;;;;;;18.08;11.52;;;16.00;93.30;;;;;;4228618;28;20439;-55
2023/04/19 08:55:28;;;;;;;56.83;15.68;;;16.00;93.00;;;;;;4230594;28;20122;-55
2023/04/19 08:57:31;;;;;;;22.13;11.77;;;15.80;93.20;;;;;;4225370;28;20136;-57
2023/04/19 08:59:35;;;;;;;16.30;11.77;;;15.90;93.10;;;;;;4227992;28;20067;-54
2023/04/19 09:01:37;;;;;;;25.25;10.43;;;15.70;93.00;;;;;;4210955;28;20040;-52
2023/04/19 09:03:43;;;;;;;20.77;12.40;;;15.90;93.50;;;;;;4226265;28;20046;-53
2023/04/19 09:06:02;;;;;;;52.47;15.10;;;15.90;93.00;;;;;;4230688;28;20082;-53
2023/04/19 09:08:21;;;;;;;27.58;11.23;;;15.90;93.20;;;;;;4219656;28;20048;-56
2023/04/19 09:10:25;;;;;;;26.60;12.75;;;15.90;93.10;;;;;;4230609;28;20395;-56
2023/04/19 09:12:30;;;;;;;19.75;10.27;;;16.00;93.00;;;;;;4224531;28;20370;-55
2023/04/19 09:14:32;;;;;;;20.13;11.13;;;16.00;93.20;;;;;;4224086;28;20067;-55
2023/04/19 09:16:36;;;;;;;25.05;11.63;;;15.90;93.20;;;;;;4221989;28;20408;-56
2023/04/19 09:18:53;;;;;;;17.95;11.48;;;16.10;93.10;;;;;;4224302;28;20063;-54
2023/04/19 09:21:27;;;;;;;13.90;10.00;;;16.00;93.20;;;;;;4207594;28;20492;-55
2023/04/19 09:23:29;;;;;;;19.17;10.38;;;16.10;93.10;;;;;;4219193;28;20040;-56
2023/04/19 09:25:31;;;;;;;20.20;11.90;;;16.10;93.20;;;;;;4231949;28;20044;-53
2023/04/19 09:27:53;;;;;;;27.08;11.38;;;16.20;92.90;;;;;;4226151;28;20043;-53
2023/04/19 09:29:57;;;;;;;18.75;11.75;;;16.30;92.90;;;;;;4220409;28;20543;-55
2023/04/19 09:32:00;;;;;;;14.02;9.45;;;16.20;92.90;;;;;;4215973;28;20044;-52
2023/04/19 09:34:16;;;;;;;13.88;9.95;;;16.30;93.20;;;;;;4220664;28;20475;-54
2023/04/19 09:36:29;;;;;;;28.20;12.10;;;16.60;93.00;;;;;;4232308;28;20108;-54
2023/04/19 09:38:45;;;;;;;25.15;11.80;;;16.70;92.30;;;;;;4220715;28;20496;-58
2023/04/19 09:40:49;;;;;;;21.15;12.18;;;16.60;92.70;;;;;;4230901;28;20043;-55
2023/04/19 09:42:51;;;;;;;18.92;10.77;;;16.70;92.40;;;;;;4229945;28;20051;-52
2023/04/19 09:44:56;;;;;;;;;;;16.80;92.30;;;;;;4222819;28;20166;-52
2023/04/19 09:47:21;;;;;;;18.00;11.85;;;16.70;92.40;;;;;;4231266;28;19924;-55
2023/04/19 09:49:24;;;;;;;17.98;10.07;;;16.70;92.40;;;;;;4229948;28;20043;-55
2023/04/19 09:51:46;;;;;;;18.67;10.25;;;16.70;92.70;;;;;;4222425;28;20040;-58
2023/04/19 09:53:49;;;;;;;15.85;10.88;;;16.80;92.60;;;;;;4227423;28;20081;-56
2023/04/19 09:55:52;;;;;;;18.80;11.90;;;16.90;92.60;;;;;;4226380;28;20039;-55
2023/04/19 09:58:04;;;;;;;17.02;11.18;;;16.90;92.60;;;;;;4227778;28;20097;-55
2023/04/19 10:00:12;;;;;;;15.93;11.30;;;16.90;92.40;;;;;;4225836;28;20119;-55
2023/04/19 10:02:16;;;;;;;15.80;10.32;;;16.80;92.30;;;;;;4231015;28;20471;-54
2023/04/19 10:04:23;;;;;;;13.35;10.32;;;16.70;92.70;;;;;;4222468;28;20101;-54
2023/04/19 10:06:44;;;;;;;18.15;11.07;;;16.80;92.60;;;;;;4231349;28;20040;-58
2023/04/19 10:09:07;;;;;;;16.13;11.00;;;16.80;92.60;;;;;;4224226;28;20036;-54
2023/04/19 10:11:12;;;;;;;14.77;11.02;;;16.80;92.40;;;;;;4216774;28;20136;-58
2023/04/19 10:13:22;;;;;;;15.35;9.85;;;16.80;92.60;;;;;;4226360;28;20055;-52
2023/04/19 10:15:29;;;;;;;18.67;10.68;;;16.80;92.40;;;;;;4225941;28;20055;-55
2023/04/19 10:17:52;;;;;;;16.77;9.75;;;16.90;92.50;;;;;;4214332;28;20251;-54
2023/04/19 10:20:00;;;;;;;10.05;8.85;;;16.90;92.00;;;;;;4227884;28;20088;-56
2023/04/19 10:22:05;;;;;;;13.65;10.20;;;16.90;91.80;;;;;;4217977;28;20071;-53
2023/04/19 10:24:08;;;;;;;12.73;9.48;;;16.90;91.60;;;;;;4219596;28;20047;-56
2023/04/19 10:26:11;;;;;;;14.98;9.18;;;16.80;91.60;;;;;;4203233;28;20505;-56
2023/04/19 10:28:16;;;;;;;20.05;10.18;;;16.90;91.80;;;;;;4230184;28;20055;-55
2023/04/19 10:30:19;;;;;;;11.35;8.85;;;16.90;91.60;;;;;;4220703;28;20412;-56
2023/04/19 10:32:23;;;;;;;12.88;8.57;;;16.90;92.10;;;;;;4228832;28;20427;-55